sensor_id;sensor_type;location;lat;lon;timestamp;temperature;humidity
39345;DHT22;25061;51.954;6.996;2023-10-09T04:31:22;14.30;99.90
39345;DHT22;25061;51.954;6.996;2023-10-09T04:33:53;14.30;99.90
39345;DHT22;25061;51.954;6.996;2023-10-09T04:36:41;14.30;99.90
39345;DHT22;25061;51.954;6.996;2023-10-09T04:39:14;14.30;99.90
39345;DHT22;25061;51.954;6.996;2023-10-09T04:41:58;14.30;99.90
39345;DHT22;25061;51.954;6.996;2023-10-09T04:44:44;14.30;99.90
39345;DHT22;25061;51.954;6.996;2023-10-09T04:47:27;14.30;99.90
39345;DHT22;25061;51.954;6.996;2023-10-09T04:50:05;14.30;99.90
39345;DHT22;25061;51.954;6.996;2023-10-09T04:52:31;14.30;99.90
39345;DHT22;25061;51.954;6.996;2023-10-09T04:54:57;14.30;99.90
39345;DHT22;25061;51.954;6.996;2023-10-09T04:57:39;14.30;99.90
39345;DHT22;25061;51.954;6.996;2023-10-09T05:00:27;14.40;99.90
39345;DHT22;25061;51.954;6.996;2023-10-09T05:02:56;14.40;99.90
39345;DHT22;25061;51.954;6.996;2023-10-09T05:05:26;14.40;99.90
39345;DHT22;25061;51.954;6.996;2023-10-09T05:08:07;14.40;99.90
39345;DHT22;25061;51.954;6.996;2023-10-09T05:10:50;14.40;99.90
39345;DHT22;25061;51.954;6.996;2023-10-09T05:13:37;14.40;99.90
39345;DHT22;25061;51.954;6.996;2023-10-09T05:18:41;14.40;99.90
39345;DHT22;25061;51.954;6.996;2023-10-09T05:21:08;14.40;99.90
39345;DHT22;25061;51.954;6.996;2023-10-09T05:23:53;14.40;99.90
39345;DHT22;25061;51.954;6.996;2023-10-09T05:26:37;14.40;99.90
39345;DHT22;25061;51.954;6.996;2023-10-09T05:29:19;14.40;99.90
39345;DHT22;25061;51.954;6.996;2023-10-09T05:31:50;14.40;99.90
39345;DHT22;25061;51.954;6.996;2023-10-09T05:34:23;14.40;99.90
39345;DHT22;25061;51.954;6.996;2023-10-09T05:37:05;14.40;99.90
39345;DHT22;25061;51.954;6.996;2023-10-09T05:39:44;14.40;99.90
39345;DHT22;25061;51.954;6.996;2023-10-09T05:42:24;14.30;99.90
39345;DHT22;25061;51.954;6.996;2023-10-09T05:44:54;14.40;99.90
39345;DHT22;25061;51.954;6.996;2023-10-09T05:47:38;14.30;99.90
39345;DHT22;25061;51.954;6.996;2023-10-09T05:50:13;14.40;99.90
39345;DHT22;25061;51.954;6.996;2023-10-09T05:52:39;14.30;99.90
39345;DHT22;25061;51.954;6.996;2023-10-09T05:55:05;14.40;99.90
39345;DHT22;25061;51.954;6.996;2023-10-09T05:57:56;14.30;99.90
39345;DHT22;25061;51.954;6.996;2023-10-09T06:00:34;14.30;99.90
39345;DHT22;25061;51.954;6.996;2023-10-09T06:03:19;14.40;99.90
39345;DHT22;25061;51.954;6.996;2023-10-09T06:05:55;14.30;99.90
39345;DHT22;25061;51.954;6.996;2023-10-09T06:08:28;14.30;99.90
39345;DHT22;25061;51.954;6.996;2023-10-09T06:11:13;14.30;99.90
39345;DHT22;25061;51.954;6.996;2023-10-09T06:13:59;14.40;99.90
39345;DHT22;25061;51.954;6.996;2023-10-09T06:16:31;14.30;99.90
39345;DHT22;25061;51.954;6.996;2023-10-09T06:19:10;14.40;99.90
39345;DHT22;25061;51.954;6.996;2023-10-09T06:21:45;14.40;99.90
39345;DHT22;25061;51.954;6.996;2023-10-09T06:24:20;14.40;99.90
39345;DHT22;25061;51.954;6.996;2023-10-09T06:26:49;14.40;99.90
39345;DHT22;25061;51.954;6.996;2023-10-09T06:29:24;14.40;99.90
39345;DHT22;25061;51.954;6.996;2023-10-09T06:32:02;14.30;99.90
39345;DHT22;25061;51.954;6.996;2023-10-09T06:34:48;14.40;99.90
39345;DHT22;25061;51.954;6.996;2023-10-09T06:37:23;14.40;99.90
39345;DHT22;25061;51.954;6.996;2023-10-09T06:39:49;14.40;99.90
39345;DHT22;25061;51.954;6.996;2023-10-09T06:42:16;14.40;99.90
39345;DHT22;25061;51.954;6.996;2023-10-09T06:45:10;14.40;99.90
39345;DHT22;25061;51.954;6.996;2023-10-09T06:47:40;14.40;99.90
39345;DHT22;25061;51.954;6.996;2023-10-09T06:50:22;14.50;99.90
39345;DHT22;25061;51.954;6.996;2023-10-09T06:52:52;14.40;99.90
39345;DHT22;25061;51.954;6.996;2023-10-09T06:55:44;14.40;99.90
39345;DHT22;25061;51.954;6.996;2023-10-09T06:58:20;14.50;99.90
39345;DHT22;25061;51.954;6.996;2023-10-09T07:00:52;14.50;99.90
39345;DHT22;25061;51.954;6.996;2023-10-09T07:03:24;14.50;99.90
39345;DHT22;25061;51.954;6.996;2023-10-09T07:06:08;14.50;99.90
39345;DHT22;25061;51.954;6.996;2023-10-09T07:08:53;14.50;99.90
39345;DHT22;25061;51.954;6.996;2023-10-09T07:11:42;14.60;99.90
39345;DHT22;25061;51.954;6.996;2023-10-09T07:14:12;14.50;99.90
39345;DHT22;25061;51.954;6.996;2023-10-09T07:17:07;14.60;99.90
39345;DHT22;25061;51.954;6.996;2023-10-09T07:19:52;14.50;99.90
39345;DHT22;25061;51.954;6.996;2023-10-09T07:22:19;14.60;99.90
39345;DHT22;25061;51.954;6.996;2023-10-09T07:24:51;14.60;99.90
39345;DHT22;25061;51.954;6.996;2023-10-09T07:27:28;14.70;99.90
39345;DHT22;25061;51.954;6.996;2023-10-09T07:30:10;14.70;99.90
39345;DHT22;25061;51.954;6.996;2023-10-09T07:32:56;14.60;99.90
39345;DHT22;25061;51.954;6.996;2023-10-09T07:35:34;14.60;99.90
39345;DHT22;25061;51.954;6.996;2023-10-09T07:38:18;14.70;99.90
39345;DHT22;25061;51.954;6.996;2023-10-09T07:41:01;14.70;99.90
39345;DHT22;25061;51.954;6.996;2023-10-09T07:43:34;14.70;99.90
39345;DHT22;25061;51.954;6.996;2023-10-09T07:46:15;14.70;99.90
39345;DHT22;25061;51.954;6.996;2023-10-09T07:49:02;14.70;99.90
39345;DHT22;25061;51.954;6.996;2023-10-09T07:51:36;14.80;99.90
39345;DHT22;25061;51.954;6.996;2023-10-09T07:54:02;14.80;99.90
39345;DHT22;25061;51.954;6.996;2023-10-09T07:56:42;14.70;99.90
39345;DHT22;25061;51.954;6.996;2023-10-09T07:59:15;14.70;99.90
39345;DHT22;25061;51.954;6.996;2023-10-09T08:01:48;14.70;99.90
39345;DHT22;25061;51.954;6.996;2023-10-09T08:04:25;14.80;99.90
39345;DHT22;25061;51.954;6.996;2023-10-09T08:07:04;14.80;99.90
39345;DHT22;25061;51.954;6.996;2023-10-09T08:09:32;14.80;99.90
39345;DHT22;25061;51.954;6.996;2023-10-09T08:12:12;14.80;99.90
39345;DHT22;25061;51.954;6.996;2023-10-09T08:14:57;14.90;99.90
39345;DHT22;25061;51.954;6.996;2023-10-09T08:20:26;14.90;99.90
39345;DHT22;25061;51.954;6.996;2023-10-09T08:22:55;14.90;99.90
39345;DHT22;25061;51.954;6.996;2023-10-09T08:25:24;14.90;99.90
39345;DHT22;25061;51.954;6.996;2023-10-09T08:28:00;15.00;99.90
39345;DHT22;25061;51.954;6.996;2023-10-09T08:30:47;15.00;99.90
39345;DHT22;25061;51.954;6.996;2023-10-09T08:33:17;15.00;99.90
39345;DHT22;25061;51.954;6.996;2023-10-09T08:35:55;15.00;99.90
39345;DHT22;25061;51.954;6.996;2023-10-09T08:38:29;15.00;99.90
39345;DHT22;25061;51.954;6.996;2023-10-09T08:41:06;15.00;99.90
39345;DHT22;25061;51.954;6.996;2023-10-09T08:43:42;15.00;99.90
39345;DHT22;25061;51.954;6.996;2023-10-09T08:46:12;15.10;99.90
39345;DHT22;25061;51.954;6.996;2023-10-09T08:48:44;15.10;99.90
39345;DHT22;25061;51.954;6.996;2023-10-09T08:51:10;15.10;99.90
39345;DHT22;25061;51.954;6.996;2023-10-09T08:53:36;15.20;99.90
39345;DHT22;25061;51.954;6.996;2023-10-09T08:56:13;15.20;99.90
39345;DHT22;25061;51.954;6.996;2023-10-09T08:58:42;15.30;99.90
39345;DHT22;25061;51.954;6.996;2023-10-09T09:01:08;15.30;99.90
39345;DHT22;25061;51.954;6.996;2023-10-09T09:03:41;15.30;99.90
39345;DHT22;25061;51.954;6.996;2023-10-09T09:06:09;15.30;99.90
39345;DHT22;25061;51.954;6.996;2023-10-09T09:08:36;15.30;99.90
39345;DHT22;25061;51.954;6.996;2023-10-09T09:11:12;15.40;99.90
39345;DHT22;25061;51.954;6.996;2023-10-09T09:13:48;15.40;99.90
39345;DHT22;25061;51.954;6.996;2023-10-09T09:16:21;15.40;99.90
39345;DHT22;25061;51.954;6.996;2023-10-09T09:18:55;15.50;99.90
39345;DHT22;25061;51.954;6.996;2023-10-09T09:21:32;15.50;99.90
39345;DHT22;25061;51.954;6.996;2023-10-09T09:24:07;15.60;99.90
39345;DHT22;25061;51.954;6.996;2023-10-09T09:26:49;15.60;99.90
39345;DHT22;25061;51.954;6.996;2023-10-09T09:32:04;15.70;99.90
39345;DHT22;25061;51.954;6.996;2023-10-09T09:34:47;15.70;99.90
39345;DHT22;25061;51.954;6.996;2023-10-09T09:37:22;15.70;99.90
39345;DHT22;25061;51.954;6.996;2023-10-09T09:40:01;15.70;99.90
39345;DHT22;25061;51.954;6.996;2023-10-09T09:42:36;15.70;99.90
39345;DHT22;25061;51.954;6.996;2023-10-09T09:45:04;15.70;99.90
39345;DHT22;25061;51.954;6.996;2023-10-09T09:47:31;15.80;99.90
39345;DHT22;25061;51.954;6.996;2023-10-09T09:50:01;15.80;99.90
39345;DHT22;25061;51.954;6.996;2023-10-09T09:52:50;15.80;99.90
39345;DHT22;25061;51.954;6.996;2023-10-09T09:55:24;15.90;99.90
39345;DHT22;25061;51.954;6.996;2023-10-09T09:57:56;15.90;99.90
39345;DHT22;25061;51.954;6.996;2023-10-09T10:00:26;15.90;99.90
39345;DHT22;25061;51.954;6.996;2023-10-09T10:03:31;16.00;99.90
39345;DHT22;25061;51.954;6.996;2023-10-09T10:06:00;16.00;99.90
39345;DHT22;25061;51.954;6.996;2023-10-09T10:08:35;16.10;99.90
39345;DHT22;25061;51.954;6.996;2023-10-09T10:11:00;16.10;99.90
39345;DHT22;25061;51.954;6.996;2023-10-09T10:16:11;16.20;99.90
39345;DHT22;25061;51.954;6.996;2023-10-09T10:19:05;16.20;99.90
39345;DHT22;25061;51.954;6.996;2023-10-09T10:21:47;16.20;99.90
39345;DHT22;25061;51.954;6.996;2023-10-09T10:24:41;16.30;99.90
39345;DHT22;25061;51.954;6.996;2023-10-09T10:27:26;16.30;99.90
39345;DHT22;25061;51.954;6.996;2023-10-09T10:32:58;16.40;99.90
39345;DHT22;25061;51.954;6.996;2023-10-09T10:35:35;16.50;99.90
39345;DHT22;25061;51.954;6.996;2023-10-09T10:38:29;16.50;99.90
39345;DHT22;25061;51.954;6.996;2023-10-09T10:41:18;16.60;99.90
39345;DHT22;25061;51.954;6.996;2023-10-09T10:43:50;16.60;99.90
39345;DHT22;25061;51.954;6.996;2023-10-09T10:46:16;16.70;99.90
39345;DHT22;25061;51.954;6.996;2023-10-09T10:49:05;16.70;99.90
39345;DHT22;25061;51.954;6.996;2023-10-09T10:51:41;16.70;99.90
39345;DHT22;25061;51.954;6.996;2023-10-09T10:54:20;16.70;99.90
39345;DHT22;25061;51.954;6.996;2023-10-09T10:57:21;16.80;99.90
39345;DHT22;25061;51.954;6.996;2023-10-09T11:00:10;16.90;99.90
39345;DHT22;25061;51.954;6.996;2023-10-09T11:02:55;16.90;99.90
39345;DHT22;25061;51.954;6.996;2023-10-09T11:05:40;16.90;99.90
39345;DHT22;25061;51.954;6.996;2023-10-09T11:08:09;16.90;99.90
39345;DHT22;25061;51.954;6.996;2023-10-09T11:10:35;17.00;99.90
39345;DHT22;25061;51.954;6.996;2023-10-09T11:13:00;17.10;99.90
39345;DHT22;25061;51.954;6.996;2023-10-09T11:15:37;17.10;99.90
39345;DHT22;25061;51.954;6.996;2023-10-09T11:18:11;17.00;99.90
39345;DHT22;25061;51.954;6.996;2023-10-09T11:20:57;17.10;99.90
39345;DHT22;25061;51.954;6.996;2023-10-09T11:23:29;17.10;99.90
39345;DHT22;25061;51.954;6.996;2023-10-09T11:26:05;17.10;99.90
39345;DHT22;25061;51.954;6.996;2023-10-09T11:29:09;17.10;99.90
39345;DHT22;25061;51.954;6.996;2023-10-09T11:32:01;17.20;99.90
39345;DHT22;25061;51.954;6.996;2023-10-09T11:34:29;17.20;99.90
39345;DHT22;25061;51.954;6.996;2023-10-09T11:36:56;17.20;99.90
39345;DHT22;25061;51.954;6.996;2023-10-09T11:39:31;17.30;99.90
39345;DHT22;25061;51.954;6.996;2023-10-09T11:42:06;17.30;99.90
39345;DHT22;25061;51.954;6.996;2023-10-09T11:44:36;17.30;99.90
39345;DHT22;25061;51.954;6.996;2023-10-09T11:47:05;17.40;99.90
39345;DHT22;25061;51.954;6.996;2023-10-09T11:49:53;17.40;99.90
39345;DHT22;25061;51.954;6.996;2023-10-09T11:52:36;17.50;99.90
39345;DHT22;25061;51.954;6.996;2023-10-09T11:55:21;17.50;99.90
39345;DHT22;25061;51.954;6.996;2023-10-09T11:57:51;17.50;99.90
39345;DHT22;25061;51.954;6.996;2023-10-09T12:00:16;17.60;99.90
39345;DHT22;25061;51.954;6.996;2023-10-09T12:02:55;17.60;99.90
39345;DHT22;25061;51.954;6.996;2023-10-09T12:05:21;17.70;99.90
39345;DHT22;25061;51.954;6.996;2023-10-09T12:07:49;17.70;99.90
39345;DHT22;25061;51.954;6.996;2023-10-09T12:10:22;17.70;99.90
39345;DHT22;25061;51.954;6.996;2023-10-09T12:12:52;17.70;99.90
39345;DHT22;25061;51.954;6.996;2023-10-09T12:15:18;17.80;99.90
39345;DHT22;25061;51.954;6.996;2023-10-09T12:17:45;17.80;99.90
39345;DHT22;25061;51.954;6.996;2023-10-09T12:20:14;17.80;99.90
39345;DHT22;25061;51.954;6.996;2023-10-09T12:22:57;17.70;99.90
39345;DHT22;25061;51.954;6.996;2023-10-09T12:25:24;17.70;99.90
39345;DHT22;25061;51.954;6.996;2023-10-09T12:27:49;17.80;99.90
39345;DHT22;25061;51.954;6.996;2023-10-09T12:30:15;17.80;99.90
39345;DHT22;25061;51.954;6.996;2023-10-09T12:32:41;17.80;99.90
39345;DHT22;25061;51.954;6.996;2023-10-09T12:35:07;17.90;99.90
39345;DHT22;25061;51.954;6.996;2023-10-09T12:37:43;18.00;99.90
39345;DHT22;25061;51.954;6.996;2023-10-09T12:40:09;18.00;99.90
39345;DHT22;25061;51.954;6.996;2023-10-09T12:42:36;18.00;99.90
39345;DHT22;25061;51.954;6.996;2023-10-09T12:45:03;18.10;99.90
39345;DHT22;25061;51.954;6.996;2023-10-09T12:47:34;18.10;99.90
39345;DHT22;25061;51.954;6.996;2023-10-09T12:50:04;18.10;99.90
39345;DHT22;25061;51.954;6.996;2023-10-09T12:52:35;18.20;99.90
39345;DHT22;25061;51.954;6.996;2023-10-09T12:55:03;18.20;99.90
39345;DHT22;25061;51.954;6.996;2023-10-09T12:57:35;18.10;99.90
39345;DHT22;25061;51.954;6.996;2023-10-09T13:00:02;18.10;99.90
39345;DHT22;25061;51.954;6.996;2023-10-09T13:02:36;18.10;99.90
39345;DHT22;25061;51.954;6.996;2023-10-09T13:05:02;18.00;99.90
39345;DHT22;25061;51.954;6.996;2023-10-09T13:07:30;18.10;99.90
39345;DHT22;25061;51.954;6.996;2023-10-09T13:09:56;18.10;99.90
39345;DHT22;25061;51.954;6.996;2023-10-09T13:12:34;18.00;99.90
39345;DHT22;25061;51.954;6.996;2023-10-09T13:15:08;18.00;99.90
39345;DHT22;25061;51.954;6.996;2023-10-09T13:17:36;18.00;99.90
39345;DHT22;25061;51.954;6.996;2023-10-09T13:20:03;18.00;99.90
39345;DHT22;25061;51.954;6.996;2023-10-09T13:22:41;18.00;99.90
39345;DHT22;25061;51.954;6.996;2023-10-09T13:25:09;17.90;99.90
39345;DHT22;25061;51.954;6.996;2023-10-09T13:27:44;17.90;99.90
39345;DHT22;25061;51.954;6.996;2023-10-09T13:30:17;17.90;99.90
39345;DHT22;25061;51.954;6.996;2023-10-09T13:32:48;18.00;99.90
39345;DHT22;25061;51.954;6.996;2023-10-09T13:35:16;18.00;99.90
39345;DHT22;25061;51.954;6.996;2023-10-09T13:37:42;18.00;99.90
39345;DHT22;25061;51.954;6.996;2023-10-09T13:40:10;18.00;99.90
39345;DHT22;25061;51.954;6.996;2023-10-09T13:42:37;17.90;99.90
39345;DHT22;25061;51.954;6.996;2023-10-09T13:45:03;17.90;99.90
39345;DHT22;25061;51.954;6.996;2023-10-09T13:47:41;17.90;99.90
39345;DHT22;25061;51.954;6.996;2023-10-09T13:50:11;17.90;99.90
39345;DHT22;25061;51.954;6.996;2023-10-09T13:52:38;17.90;99.90
39345;DHT22;25061;51.954;6.996;2023-10-09T13:55:08;17.90;99.90
39345;DHT22;25061;51.954;6.996;2023-10-09T13:57:43;17.90;99.90
39345;DHT22;25061;51.954;6.996;2023-10-09T14:00:16;17.90;99.90
39345;DHT22;25061;51.954;6.996;2023-10-09T14:03:02;17.90;99.90
39345;DHT22;25061;51.954;6.996;2023-10-09T14:05:37;17.80;99.90
39345;DHT22;25061;51.954;6.996;2023-10-09T14:08:10;17.80;99.90
39345;DHT22;25061;51.954;6.996;2023-10-09T14:10:37;17.80;99.90
39345;DHT22;25061;51.954;6.996;2023-10-09T14:13:04;17.80;99.90
39345;DHT22;25061;51.954;6.996;2023-10-09T14:15:38;17.80;99.90
39345;DHT22;25061;51.954;6.996;2023-10-09T14:18:06;17.80;99.90
39345;DHT22;25061;51.954;6.996;2023-10-09T14:20:34;17.80;99.90
39345;DHT22;25061;51.954;6.996;2023-10-09T14:23:01;17.80;99.90
39345;DHT22;25061;51.954;6.996;2023-10-09T14:25:33;17.70;99.90
39345;DHT22;25061;51.954;6.996;2023-10-09T14:28:05;17.70;99.90
39345;DHT22;25061;51.954;6.996;2023-10-09T14:30:37;17.80;99.90
39345;DHT22;25061;51.954;6.996;2023-10-09T14:33:13;17.80;99.90
39345;DHT22;25061;51.954;6.996;2023-10-09T14:35:42;17.80;99.90
39345;DHT22;25061;51.954;6.996;2023-10-09T14:38:09;17.80;99.90
39345;DHT22;25061;51.954;6.996;2023-10-09T14:40:41;17.90;99.90
39345;DHT22;25061;51.954;6.996;2023-10-09T14:43:08;17.90;99.90
39345;DHT22;25061;51.954;6.996;2023-10-09T14:45:37;17.90;99.90
39345;DHT22;25061;51.954;6.996;2023-10-09T14:48:03;17.90;99.90
39345;DHT22;25061;51.954;6.996;2023-10-09T14:50:29;17.90;99.90
39345;DHT22;25061;51.954;6.996;2023-10-09T14:52:54;17.90;99.90
39345;DHT22;25061;51.954;6.996;2023-10-09T14:55:20;17.90;99.90
39345;DHT22;25061;51.954;6.996;2023-10-09T14:57:54;17.90;99.90
39345;DHT22;25061;51.954;6.996;2023-10-09T15:00:20;17.90;99.90
39345;DHT22;25061;51.954;6.996;2023-10-09T15:02:49;17.90;99.90
39345;DHT22;25061;51.954;6.996;2023-10-09T15:05:18;17.90;99.90
39345;DHT22;25061;51.954;6.996;2023-10-09T15:07:44;17.90;99.90
39345;DHT22;25061;51.954;6.996;2023-10-09T15:10:11;17.90;99.90
39345;DHT22;25061;51.954;6.996;2023-10-09T15:12:40;17.90;99.90
39345;DHT22;25061;51.954;6.996;2023-10-09T15:15:09;17.90;99.90
39345;DHT22;25061;51.954;6.996;2023-10-09T15:17:40;18.00;99.90
39345;DHT22;25061;51.954;6.996;2023-10-09T15:20:11;17.90;99.90
39345;DHT22;25061;51.954;6.996;2023-10-09T15:22:43;18.00;99.90
39345;DHT22;25061;51.954;6.996;2023-10-09T15:25:09;18.00;99.90
39345;DHT22;25061;51.954;6.996;2023-10-09T15:27:40;18.00;99.90
39345;DHT22;25061;51.954;6.996;2023-10-09T15:30:06;18.00;99.90
39345;DHT22;25061;51.954;6.996;2023-10-09T15:32:34;18.00;99.90
39345;DHT22;25061;51.954;6.996;2023-10-09T15:35:00;18.00;99.90
39345;DHT22;25061;51.954;6.996;2023-10-09T15:37:27;18.00;99.90
39345;DHT22;25061;51.954;6.996;2023-10-09T15:39:54;18.00;99.90
39345;DHT22;25061;51.954;6.996;2023-10-09T15:42:20;18.00;99.90
39345;DHT22;25061;51.954;6.996;2023-10-09T15:44:45;18.00;99.90
39345;DHT22;25061;51.954;6.996;2023-10-09T15:47:13;17.90;99.90
39345;DHT22;25061;51.954;6.996;2023-10-09T15:49:41;17.90;99.90
39345;DHT22;25061;51.954;6.996;2023-10-09T15:52:09;17.90;99.90
39345;DHT22;25061;51.954;6.996;2023-10-09T15:54:40;17.90;99.90
39345;DHT22;25061;51.954;6.996;2023-10-09T15:57:08;17.90;99.90
39345;DHT22;25061;51.954;6.996;2023-10-09T15:59:35;17.90;99.90
39345;DHT22;25061;51.954;6.996;2023-10-09T16:02:00;17.90;99.90
39345;DHT22;25061;51.954;6.996;2023-10-09T16:04:28;17.80;99.90
39345;DHT22;25061;51.954;6.996;2023-10-09T16:07:01;17.80;99.90
39345;DHT22;25061;51.954;6.996;2023-10-09T16:09:30;17.80;99.90
39345;DHT22;25061;51.954;6.996;2023-10-09T16:12:00;17.80;99.90
39345;DHT22;25061;51.954;6.996;2023-10-09T16:14:26;17.80;99.90
39345;DHT22;25061;51.954;6.996;2023-10-09T16:16:52;17.80;99.90
39345;DHT22;25061;51.954;6.996;2023-10-09T16:19:21;17.80;99.90
39345;DHT22;25061;51.954;6.996;2023-10-09T16:21:53;17.80;99.90
39345;DHT22;25061;51.954;6.996;2023-10-09T16:24:19;17.80;99.90
39345;DHT22;25061;51.954;6.996;2023-10-09T16:26:45;17.80;99.90
39345;DHT22;25061;51.954;6.996;2023-10-09T16:29:16;17.80;99.90
39345;DHT22;25061;51.954;6.996;2023-10-09T16:31:42;17.80;99.90
39345;DHT22;25061;51.954;6.996;2023-10-09T16:34:08;17.80;99.90
39345;DHT22;25061;51.954;6.996;2023-10-09T16:36:34;17.80;99.90
39345;DHT22;25061;51.954;6.996;2023-10-09T16:39:04;17.70;99.90
39345;DHT22;25061;51.954;6.996;2023-10-09T16:41:30;17.70;99.90
39345;DHT22;25061;51.954;6.996;2023-10-09T16:44:03;17.70;99.90
39345;DHT22;25061;51.954;6.996;2023-10-09T16:46:30;17.70;99.90
39345;DHT22;25061;51.954;6.996;2023-10-09T16:48:56;17.70;99.90
39345;DHT22;25061;51.954;6.996;2023-10-09T16:51:24;17.70;99.90
39345;DHT22;25061;51.954;6.996;2023-10-09T16:53:51;17.70;99.90
39345;DHT22;25061;51.954;6.996;2023-10-09T16:56:21;17.70;99.90
39345;DHT22;25061;51.954;6.996;2023-10-09T16:58:47;17.70;99.90
39345;DHT22;25061;51.954;6.996;2023-10-09T17:01:16;17.70;99.90
39345;DHT22;25061;51.954;6.996;2023-10-09T17:03:47;17.60;99.90
39345;DHT22;25061;51.954;6.996;2023-10-09T17:06:20;17.60;99.90
39345;DHT22;25061;51.954;6.996;2023-10-09T17:08:46;17.60;99.90
39345;DHT22;25061;51.954;6.996;2023-10-09T17:11:13;17.60;99.90
39345;DHT22;25061;51.954;6.996;2023-10-09T17:13:40;17.60;99.90
39345;DHT22;25061;51.954;6.996;2023-10-09T17:16:20;17.50;99.90
39345;DHT22;25061;51.954;6.996;2023-10-09T17:18:47;17.50;99.90
39345;DHT22;25061;51.954;6.996;2023-10-09T17:21:13;17.50;99.90
39345;DHT22;25061;51.954;6.996;2023-10-09T17:23:43;17.50;99.90
39345;DHT22;25061;51.954;6.996;2023-10-09T17:26:12;17.50;99.90
39345;DHT22;25061;51.954;6.996;2023-10-09T17:28:40;17.40;99.90
39345;DHT22;25061;51.954;6.996;2023-10-09T17:31:06;17.40;99.90
39345;DHT22;25061;51.954;6.996;2023-10-09T17:33:32;17.30;99.90
39345;DHT22;25061;51.954;6.996;2023-10-09T17:36:07;17.30;99.90
39345;DHT22;25061;51.954;6.996;2023-10-09T17:38:33;17.30;99.90
39345;DHT22;25061;51.954;6.996;2023-10-09T17:41:01;17.20;99.90
39345;DHT22;25061;51.954;6.996;2023-10-09T17:43:27;17.10;99.90
39345;DHT22;25061;51.954;6.996;2023-10-09T17:45:54;17.10;99.90
39345;DHT22;25061;51.954;6.996;2023-10-09T17:48:21;17.00;99.90
39345;DHT22;25061;51.954;6.996;2023-10-09T17:50:46;17.00;99.90
39345;DHT22;25061;51.954;6.996;2023-10-09T17:53:12;17.00;99.90
39345;DHT22;25061;51.954;6.996;2023-10-09T17:55:39;16.90;99.90
39345;DHT22;25061;51.954;6.996;2023-10-09T17:58:05;16.80;99.90
39345;DHT22;25061;51.954;6.996;2023-10-09T18:00:44;16.80;99.90
39345;DHT22;25061;51.954;6.996;2023-10-09T18:03:12;16.80;99.90
39345;DHT22;25061;51.954;6.996;2023-10-09T18:05:41;16.80;99.90
39345;DHT22;25061;51.954;6.996;2023-10-09T18:08:09;16.80;99.90
39345;DHT22;25061;51.954;6.996;2023-10-09T18:10:43;16.80;99.90
39345;DHT22;25061;51.954;6.996;2023-10-09T18:13:09;16.80;99.90
39345;DHT22;25061;51.954;6.996;2023-10-09T18:15:39;16.90;99.90
39345;DHT22;25061;51.954;6.996;2023-10-09T18:18:07;16.90;99.90
39345;DHT22;25061;51.954;6.996;2023-10-09T18:20:40;16.90;99.90
39345;DHT22;25061;51.954;6.996;2023-10-09T18:23:06;16.90;99.90
39345;DHT22;25061;51.954;6.996;2023-10-09T18:25:32;16.90;99.90
39345;DHT22;25061;51.954;6.996;2023-10-09T18:27:57;16.90;99.90
39345;DHT22;25061;51.954;6.996;2023-10-09T18:30:23;17.00;99.90
39345;DHT22;25061;51.954;6.996;2023-10-09T18:32:51;17.00;99.90
39345;DHT22;25061;51.954;6.996;2023-10-09T18:35:22;17.00;99.90
39345;DHT22;25061;51.954;6.996;2023-10-09T18:37:49;16.90;99.90
39345;DHT22;25061;51.954;6.996;2023-10-09T18:40:16;16.90;99.90
39345;DHT22;25061;51.954;6.996;2023-10-09T18:42:46;16.90;99.90
39345;DHT22;25061;51.954;6.996;2023-10-09T18:45:13;16.90;99.90
39345;DHT22;25061;51.954;6.996;2023-10-09T18:47:41;16.90;99.90
39345;DHT22;25061;51.954;6.996;2023-10-09T18:50:07;16.80;99.90
39345;DHT22;25061;51.954;6.996;2023-10-09T18:52:38;16.80;99.90
39345;DHT22;25061;51.954;6.996;2023-10-09T18:55:17;16.80;99.90
39345;DHT22;25061;51.954;6.996;2023-10-09T18:57:44;16.80;99.90
39345;DHT22;25061;51.954;6.996;2023-10-09T19:00:11;16.80;99.90
39345;DHT22;25061;51.954;6.996;2023-10-09T19:02:49;16.80;99.90
39345;DHT22;25061;51.954;6.996;2023-10-09T19:05:17;16.80;99.90
39345;DHT22;25061;51.954;6.996;2023-10-09T19:07:42;16.80;99.90
39345;DHT22;25061;51.954;6.996;2023-10-09T19:10:08;16.80;99.90
39345;DHT22;25061;51.954;6.996;2023-10-09T19:12:37;16.80;99.90
39345;DHT22;25061;51.954;6.996;2023-10-09T19:15:03;16.80;99.90
39345;DHT22;25061;51.954;6.996;2023-10-09T19:17:33;16.80;99.90
39345;DHT22;25061;51.954;6.996;2023-10-09T19:20:03;16.80;99.90
39345;DHT22;25061;51.954;6.996;2023-10-09T19:22:31;16.70;99.90
39345;DHT22;25061;51.954;6.996;2023-10-09T19:24:56;16.70;99.90
39345;DHT22;25061;51.954;6.996;2023-10-09T19:27:22;16.70;99.90
39345;DHT22;25061;51.954;6.996;2023-10-09T19:29:51;16.70;99.90
39345;DHT22;25061;51.954;6.996;2023-10-09T19:32:18;16.70;99.90
39345;DHT22;25061;51.954;6.996;2023-10-09T19:34:46;16.70;99.90
39345;DHT22;25061;51.954;6.996;2023-10-09T19:37:12;16.70;99.90
39345;DHT22;25061;51.954;6.996;2023-10-09T19:39:39;16.60;99.90
39345;DHT22;25061;51.954;6.996;2023-10-09T19:42:06;16.60;99.90
39345;DHT22;25061;51.954;6.996;2023-10-09T19:44:32;16.60;99.90
39345;DHT22;25061;51.954;6.996;2023-10-09T19:46:58;16.50;99.90
39345;DHT22;25061;51.954;6.996;2023-10-09T19:49:24;16.60;99.90
39345;DHT22;25061;51.954;6.996;2023-10-09T19:51:51;16.60;99.90
39345;DHT22;25061;51.954;6.996;2023-10-09T19:54:17;16.50;99.90
39345;DHT22;25061;51.954;6.996;2023-10-09T19:56:46;16.50;99.90
39345;DHT22;25061;51.954;6.996;2023-10-09T19:59:13;16.50;99.90
39345;DHT22;25061;51.954;6.996;2023-10-09T20:01:40;16.50;99.90
39345;DHT22;25061;51.954;6.996;2023-10-09T20:04:06;16.60;99.90
39345;DHT22;25061;51.954;6.996;2023-10-09T20:06:31;16.60;99.90
39345;DHT22;25061;51.954;6.996;2023-10-09T20:08:57;16.60;99.90
39345;DHT22;25061;51.954;6.996;2023-10-09T20:11:22;16.60;99.90
39345;DHT22;25061;51.954;6.996;2023-10-09T20:13:48;16.60;99.90
39345;DHT22;25061;51.954;6.996;2023-10-09T20:16:17;16.50;99.90
39345;DHT22;25061;51.954;6.996;2023-10-09T20:18:42;16.50;99.90
39345;DHT22;25061;51.954;6.996;2023-10-09T20:21:10;16.50;99.90
39345;DHT22;25061;51.954;6.996;2023-10-09T20:23:41;16.50;99.90
39345;DHT22;25061;51.954;6.996;2023-10-09T20:26:07;16.50;99.90
39345;DHT22;25061;51.954;6.996;2023-10-09T20:28:37;16.50;99.90
39345;DHT22;25061;51.954;6.996;2023-10-09T20:31:03;16.50;99.90
39345;DHT22;25061;51.954;6.996;2023-10-09T20:33:30;16.50;99.90
39345;DHT22;25061;51.954;6.996;2023-10-09T20:36:03;16.50;99.90
39345;DHT22;25061;51.954;6.996;2023-10-09T20:38:29;16.50;99.90
39345;DHT22;25061;51.954;6.996;2023-10-09T20:40:55;16.50;99.90
39345;DHT22;25061;51.954;6.996;2023-10-09T20:43:20;16.50;99.90
39345;DHT22;25061;51.954;6.996;2023-10-09T20:45:46;16.40;99.90